Time;durP1;ratioP1;P1;durP2;ratioP2;P2;SDS_P1;SDS_P2;PMS_P1;PMS_P2;Temp;Humidity;BMP_temperature;BMP_pressure;BME280_temperature;BME280_humidity;BME280_pressure;Samples;Min_cycle;Max_cycle;Signal;HPM_P1;HPM_P2
2022/08/24 00:02:13;;;;;;;;;;;18.90;99.90;;;;;;5071917;28;20068;-80
2022/08/24 00:04:40;;;;;;;;;;;18.90;99.90;;;;;;5064619;28;19935;-80
2022/08/24 00:07:07;;;;;;;;;;;18.80;99.90;;;;;;5073174;28;19943;-77
2022/08/24 00:09:35;;;;;;;;;;;18.80;99.90;;;;;;5063373;28;19934;-80
2022/08/24 00:12:04;;;;;;;;;;;18.80;99.90;;;;;;5066008;28;19970;-79
2022/08/24 00:14:32;;;;;;;;;;;18.80;99.90;;;;;;5072653;28;19924;-79
2022/08/24 00:17:05;;;;;;;;;;;18.80;99.90;;;;;;5072136;28;20029;-80
2022/08/24 00:19:31;;;;;;;;;;;18.70;99.90;;;;;;5071967;28;19928;-79
2022/08/24 00:21:59;;;;;;;;;;;18.70;99.90;;;;;;5074144;28;19931;-79
2022/08/24 00:24:25;;;;;;;;;;;18.60;99.90;;;;;;5071872;28;20022;-80
2022/08/24 00:26:52;;;;;;;;;;;18.60;99.90;;;;;;5072782;28;19924;-79
2022/08/24 00:29:20;;;;;;;;;;;18.60;99.90;;;;;;5058658;28;19968;-79
2022/08/24 00:31:48;;;;;;;;;;;18.60;99.90;;;;;;5071823;28;19920;-79
2022/08/24 00:34:17;;;;;;;;;;;18.50;99.90;;;;;;5065949;28;19932;-79
2022/08/24 00:36:44;;;;;;;;;;;18.10;99.90;;;;;;5063608;28;20412;-79
2022/08/24 00:39:12;;;;;;;;;;;18.40;99.90;;;;;;5067515;28;20308;-78
2022/08/24 00:41:40;;;;;;;;;;;18.50;99.90;;;;;;5059631;28;19928;-78
2022/08/24 00:44:07;;;;;;;;;;;18.50;99.90;;;;;;5081319;28;19959;-79
2022/08/24 00:46:41;;;;;;;;;;;18.90;99.90;;;;;;5060232;28;19928;-79
2022/08/24 00:49:10;;;;;;;;;;;18.40;99.90;;;;;;5051309;28;19929;-79
2022/08/24 00:51:40;;;;;;;;;;;18.40;99.90;;;;;;5051386;28;19928;-79
2022/08/24 00:54:08;;;;;;;;;;;18.40;99.90;;;;;;5052500;28;19931;-79
2022/08/24 00:56:37;;;;;;;;;;;18.30;99.90;;;;;;5055783;28;19928;-80
2022/08/24 00:59:07;;;;;;;;;;;18.30;99.90;;;;;;5053197;28;19928;-79
2022/08/24 01:01:35;;;;;;;;;;;18.30;99.90;;;;;;5064815;28;21363;-78
2022/08/24 01:04:04;;;;;;;;;;;18.30;99.90;;;;;;5066251;28;19931;-78
2022/08/24 01:06:35;;;;;;;;;;;18.30;99.90;;;;;;5068418;28;20348;-79
2022/08/24 01:09:27;;;;;;;;;;;18.20;99.90;;;;;;5071316;28;20359;-80
2022/08/24 01:11:56;;;;;;;;;;;18.20;99.90;;;;;;5072741;28;19924;-79
2022/08/24 01:14:41;;;;;;;;;;;18.20;99.90;;;;;;5073689;28;19924;-79
2022/08/24 01:20:18;;;;;;;;;;;18.10;99.90;;;;;;5055335;28;19975;-80
2022/08/24 01:22:56;;;;;;;;;;;18.10;99.90;;;;;;5056976;28;19931;-80
2022/08/24 01:25:30;;;;;;;;;;;18.10;99.90;;;;;;5070620;28;19932;-77
2022/08/24 01:28:12;;;;;;;;;;;18.00;99.90;;;;;;5070816;28;19930;-78
2022/08/24 01:30:44;;;;;;;;;;;18.00;99.90;;;;;;5074217;28;20007;-79
2022/08/24 01:33:25;;;;;;;;;;;18.00;99.90;;;;;;5072246;28;20411;-78
2022/08/24 01:35:57;;;;;;;;;;;18.00;99.90;;;;;;5068463;28;19925;-78
2022/08/24 01:38:25;;;;;;;;;;;17.90;99.90;;;;;;5074248;28;19920;-79
2022/08/24 01:41:07;;;;;;;;;;;17.90;99.90;;;;;;5068756;28;19928;-79
2022/08/24 01:43:44;;;;;;;;;;;17.90;99.90;;;;;;5070844;28;19974;-79
2022/08/24 01:46:12;;;;;;;;;;;17.90;99.90;;;;;;5055555;28;19921;-78
2022/08/24 01:48:39;;;;;;;;;;;17.80;99.90;;;;;;5063459;28;19939;-78
2022/08/24 01:51:07;;;;;;;;;;;17.80;99.90;;;;;;5061866;28;19920;-78
2022/08/24 01:53:39;;;;;;;;;;;17.80;99.90;;;;;;5066780;28;19924;-78
2022/08/24 01:56:13;;;;;;;;;;;17.80;99.90;;;;;;5088269;28;20042;-78
2022/08/24 01:58:43;;;;;;;;;;;17.80;99.90;;;;;;5071972;28;19948;-78
2022/08/24 02:01:10;;;;;;;;;;;17.80;99.90;;;;;;5072517;28;20368;-80
2022/08/24 02:03:37;;;;;;;;;;;17.80;99.90;;;;;;5072909;28;19924;-79
2022/08/24 02:06:04;;;;;;;;;;;17.70;99.90;;;;;;5071299;28;19924;-78
2022/08/24 02:08:35;;;;;;;;;;;17.70;99.90;;;;;;5073770;28;19927;-80
2022/08/24 02:11:02;;;;;;;;;;;17.70;99.90;;;;;;5072869;28;19985;-80
2022/08/24 02:13:31;;;;;;;;;;;17.70;99.90;;;;;;5066776;28;19925;-80
2022/08/24 02:15:59;;;;;;;;;;;17.70;99.90;;;;;;5065995;28;19924;-79
2022/08/24 02:18:29;;;;;;;;;;;17.70;99.90;;;;;;5068251;28;19959;-79
2022/08/24 02:20:57;;;;;;;;;;;17.60;99.90;;;;;;5064897;28;19935;-79
2022/08/24 02:23:24;;;;;;;;;;;17.60;99.90;;;;;;5070350;28;19971;-79
2022/08/24 02:25:51;;;;;;;;;;;17.60;99.90;;;;;;5067719;28;20365;-80
2022/08/24 02:28:19;;;;;;;;;;;17.60;99.90;;;;;;5066086;28;19936;-80
2022/08/24 02:30:47;;;;;;;;;;;17.50;99.90;;;;;;5071098;28;19989;-80
2022/08/24 02:33:14;;;;;;;;;;;17.50;99.90;;;;;;5064714;28;19931;-80
2022/08/24 02:35:41;;;;;;;;;;;17.50;99.90;;;;;;5067243;28;19940;-78
2022/08/24 02:38:09;;;;;;;;;;;17.50;99.90;;;;;;5066787;28;20396;-79
2022/08/24 02:40:38;;;;;;;;;;;17.40;99.90;;;;;;5073166;28;20291;-78
2022/08/24 02:43:05;;;;;;;;;;;17.40;99.90;;;;;;5073536;28;20030;-79
2022/08/24 02:45:33;;;;;;;;;;;17.40;99.90;;;;;;5071320;28;20462;-78
2022/08/24 02:48:01;;;;;;;;;;;17.40;99.90;;;;;;5070805;28;19946;-79
2022/08/24 02:50:28;;;;;;;;;;;17.40;99.90;;;;;;5070301;28;20375;-78
2022/08/24 02:52:55;;;;;;;;;;;17.40;99.90;;;;;;5070437;28;19929;-79
2022/08/24 02:55:22;;;;;;;;;;;17.30;99.90;;;;;;5071275;28;20011;-79
2022/08/24 02:57:52;;;;;;;;;;;17.30;99.90;;;;;;5073677;28;19988;-79
2022/08/24 03:00:20;;;;;;;;;;;17.30;99.90;;;;;;5076071;28;19931;-80
2022/08/24 03:02:54;;;;;;;;;;;17.30;99.90;;;;;;5074103;28;19928;-79
2022/08/24 03:05:24;;;;;;;;;;;17.30;99.90;;;;;;5064220;28;19924;-79
2022/08/24 03:07:52;;;;;;;;;;;17.30;99.90;;;;;;5065551;28;19921;-78
2022/08/24 03:10:19;;;;;;;;;;;17.20;99.90;;;;;;5074151;28;20380;-79
2022/08/24 03:12:47;;;;;;;;;;;19.80;99.90;;;;;;5074557;28;20346;-79
2022/08/24 03:15:14;;;;;;;;;;;17.20;99.90;;;;;;5075238;28;19971;-79
2022/08/24 03:17:42;;;;;;;;;;;17.20;99.90;;;;;;5071444;28;19928;-79
2022/08/24 03:20:12;;;;;;;;;;;17.20;99.90;;;;;;5053924;28;20065;-79
2022/08/24 03:22:41;;;;;;;;;;;17.20;99.90;;;;;;5073782;28;19928;-80
2022/08/24 03:25:09;;;;;;;;;;;17.10;99.90;;;;;;5061955;28;19932;-81
2022/08/24 03:27:36;;;;;;;;;;;17.10;99.90;;;;;;5065269;28;20016;-80
2022/08/24 03:30:03;;;;;;;;;;;17.10;99.90;;;;;;5057569;28;19928;-80
2022/08/24 03:32:31;;;;;;;;;;;17.10;99.90;;;;;;5059120;28;19924;-80
2022/08/24 03:34:58;;;;;;;;;;;17.00;99.90;;;;;;5069589;28;19920;-77
2022/08/24 03:37:25;;;;;;;;;;;17.00;99.90;;;;;;5057276;28;20316;-80
2022/08/24 03:39:53;;;;;;;;;;;17.00;99.90;;;;;;5068564;28;19928;-80
2022/08/24 03:42:20;;;;;;;;;;;17.00;99.90;;;;;;5065224;28;19936;-81
2022/08/24 03:44:47;;;;;;;;;;;17.00;99.90;;;;;;5070478;28;20307;-79
2022/08/24 03:47:16;;;;;;;;;;;17.00;99.90;;;;;;5055116;28;19924;-80
2022/08/24 03:49:43;;;;;;;;;;;17.00;99.90;;;;;;5065261;28;19924;-79
2022/08/24 03:52:10;;;;;;;;;;;17.00;99.90;;;;;;5068121;28;19947;-81
2022/08/24 03:54:37;;;;;;;;;;;16.90;99.90;;;;;;5063779;28;20296;-79
2022/08/24 03:57:06;;;;;;;;;;;16.90;99.90;;;;;;5057134;28;19978;-85
2022/08/24 03:59:33;;;;;;;;;;;16.90;99.90;;;;;;5068744;28;20023;-78
2022/08/24 04:02:00;;;;;;;;;;;16.90;99.90;;;;;;5059880;28;20287;-77
2022/08/24 04:04:30;;;;;;;;;;;16.90;99.90;;;;;;5059790;28;19928;-77
2022/08/24 04:06:57;;;;;;;;;;;17.60;99.90;;;;;;5078527;28;19970;-77
2022/08/24 04:09:26;;;;;;;;;;;16.80;99.90;;;;;;5059571;28;20318;-77
2022/08/24 04:11:54;;;;;;;;;;;16.80;99.90;;;;;;5060741;28;19928;-78
2022/08/24 04:14:26;;;;;;;;;;;16.80;99.90;;;;;;5064845;28;19978;-77
2022/08/24 04:16:56;;;;;;;;;;;16.80;99.90;;;;;;5056172;28;20018;-77
2022/08/24 04:19:29;;;;;;;;;;;16.80;99.90;;;;;;5050637;28;19946;-75
2022/08/24 04:21:58;;;;;;;;;;;16.80;99.90;;;;;;5055975;28;19960;-77
2022/08/24 04:24:26;;;;;;;;;;;16.80;99.90;;;;;;5072332;28;20055;-77
2022/08/24 04:26:53;;;;;;;;;;;16.70;99.90;;;;;;5056327;28;20177;-77
2022/08/24 04:29:20;;;;;;;;;;;16.80;99.90;;;;;;5050433;28;19928;-75
2022/08/24 04:31:53;;;;;;;;;;;16.80;99.90;;;;;;5056446;28;20020;-77
2022/08/24 04:34:21;;;;;;;;;;;16.70;99.90;;;;;;5058847;28;20260;-78
2022/08/24 04:36:49;;;;;;;;;;;16.80;99.90;;;;;;5055485;28;19928;-78
2022/08/24 04:39:16;;;;;;;;;;;16.80;99.90;;;;;;5068916;28;19931;-79
2022/08/24 04:42:16;;;;;;;;;;;16.80;99.90;;;;;;5064033;28;19928;-78
2022/08/24 04:44:44;;;;;;;;;;;16.80;99.90;;;;;;5052544;28;19978;-78
2022/08/24 04:47:14;;;;;;;;;;;16.80;99.90;;;;;;5050477;28;19935;-79
2022/08/24 04:49:41;;;;;;;;;;;16.80;99.90;;;;;;5073212;28;19924;-78
2022/08/24 04:52:10;;;;;;;;;;;16.80;99.90;;;;;;5063171;28;19924;-78
2022/08/24 04:54:37;;;;;;;;;;;16.80;99.90;;;;;;5049598;28;20025;-79
2022/08/24 04:57:25;;;;;;;;;;;16.80;99.90;;;;;;5046699;28;20779;-78
2022/08/24 04:59:55;;;;;;;;;;;16.80;99.90;;;;;;5056564;28;19920;-79
2022/08/24 05:02:24;;;;;;;;;;;16.90;99.90;;;;;;5047082;28;19929;-78
2022/08/24 05:04:54;;;;;;;;;;;16.90;99.90;;;;;;5052889;28;21181;-77
2022/08/24 05:07:28;;;;;;;;;;;17.00;99.90;;;;;;5056747;28;19928;-79
2022/08/24 05:09:56;;;;;;;;;;;17.10;99.90;;;;;;5052021;28;19928;-77
2022/08/24 05:12:23;;;;;;;;;;;17.10;99.90;;;;;;5060554;28;19929;-77
2022/08/24 05:14:58;;;;;;;;;;;17.20;99.90;;;;;;5074859;28;20388;-78
2022/08/24 05:17:27;;;;;;;;;;;17.20;99.90;;;;;;5056953;28;20406;-78
2022/08/24 05:19:55;;;;;;;;;;;17.20;99.90;;;;;;5057239;28;20387;-77
2022/08/24 05:22:22;;;;;;;;;;;17.30;99.90;;;;;;5057215;28;19943;-78
2022/08/24 05:24:53;;;;;;;;;;;17.40;99.90;;;;;;5057267;28;19935;-78
2022/08/24 05:27:21;;;;;;;;;;;17.60;99.90;;;;;;5061035;28;20026;-78
2022/08/24 05:29:52;;;;;;;;;;;17.50;99.90;;;;;;5057270;28;19925;-78
2022/08/24 05:32:19;;;;;;;;;;;17.70;99.90;;;;;;5074672;28;19964;-77
2022/08/24 05:34:47;;;;;;;;;;;17.80;99.90;;;;;;5066584;28;19928;-79
2022/08/24 05:37:14;;;;;;;;;;;18.00;99.90;;;;;;5058487;28;19924;-78
2022/08/24 05:40:10;;;;;;;10.20;5.30;;;18.20;99.90;;;;;;5059445;28;20021;-79
2022/08/24 05:42:40;;;;;;;11.00;4.47;;;19.70;99.90;;;;;;5057696;28;20239;-79
2022/08/24 05:45:09;;;;;;;7.53;4.37;;;19.80;99.90;;;;;;5057125;28;20695;-78
2022/08/24 05:47:37;;;;;;;8.20;4.60;;;20.50;99.90;;;;;;5051671;28;20304;-78
2022/08/24 05:50:14;;;;;;;9.97;4.30;;;21.20;99.90;;;;;;5059286;28;20455;-79
2022/08/24 05:52:44;;;;;;;16.63;5.60;;;22.00;99.90;;;;;;5058402;28;21834;-78
2022/08/24 05:55:12;;;;;;;20.03;5.87;;;22.00;99.90;;;;;;5059254;28;20211;-79
2022/08/24 05:57:39;;;;;;;15.67;5.47;;;22.20;99.90;;;;;;5058868;28;20699;-78
2022/08/24 06:00:19;;;;;;;17.10;5.00;;;22.20;99.90;;;;;;5059104;28;20223;-77
2022/08/24 06:02:51;;;;;;;18.80;5.73;;;;;;;;;;5063809;28;20223;-78
2022/08/24 06:05:21;;;;;;;15.33;5.60;;;22.00;99.90;;;;;;5075924;28;20256;-77
2022/08/24 06:07:48;;;;;;;10.77;4.97;;;21.60;99.90;;;;;;5069966;28;20454;-78
2022/08/24 06:10:17;;;;;;;12.83;5.33;;;21.40;99.90;;;;;;5059658;28;20218;-79
2022/08/24 06:12:44;;;;;;;13.00;5.80;;;22.10;99.90;;;;;;5061525;28;20227;-79
2022/08/24 06:15:12;;;;;;;14.90;4.90;;;22.10;99.90;;;;;;5060803;28;20220;-79
2022/08/24 06:17:39;;;;;;;9.87;4.47;;;23.20;99.90;;;;;;5082309;28;20224;-79
2022/08/24 06:20:07;;;;;;;14.83;4.87;;;24.70;99.90;;;;;;5063594;28;20213;-79
2022/08/24 06:22:36;;;;;;;14.13;4.33;;;27.50;99.90;;;;;;5058508;28;20215;-79
2022/08/24 06:27:52;;;;;;;15.47;4.40;;;28.90;99.90;;;;;;5061382;28;20233;-79
2022/08/24 06:30:19;;;;;;;18.97;4.67;;;30.30;99.90;;;;;;5066309;28;20213;-80
2022/08/24 06:35:53;;;;;;;11.75;5.10;;;32.40;99.90;;;;;;5197496;22;20590;-81
2022/08/24 06:38:23;;;;;;;14.25;4.75;;;32.90;99.90;;;;;;5094596;28;20230;-79
2022/08/24 06:40:52;;;;;;;22.48;4.88;;;32.70;99.90;;;;;;5099566;28;20237;-77
2022/08/24 06:43:23;;;;;;;15.68;4.90;;;32.20;99.90;;;;;;5085973;28;20228;-78
2022/08/24 06:45:55;;;;;;;23.33;6.03;;;32.30;99.90;;;;;;5077882;28;20594;-78
2022/08/24 06:48:33;;;;;;;18.60;5.80;;;32.30;99.90;;;;;;5077530;28;20850;-81
2022/08/24 06:51:01;;;;;;;15.30;5.82;;;32.60;99.90;;;;;;5078563;28;20208;-79
2022/08/24 06:53:29;;;;;;;23.58;6.00;;;33.50;99.90;;;;;;5078741;28;20864;-80
2022/08/24 06:55:59;;;;;;;23.20;6.90;;;33.60;99.90;;;;;;5080391;28;20196;-80
2022/08/24 06:58:28;;;;;;;26.70;7.43;;;34.30;99.90;;;;;;5077908;28;20227;-80
2022/08/24 07:01:07;;;;;;;25.25;6.80;;;35.00;99.90;;;;;;5077953;28;20204;-79
2022/08/24 07:03:34;;;;;;;22.58;5.90;;;35.50;99.90;;;;;;5076922;28;20227;-80
2022/08/24 07:06:17;;;;;;;14.80;5.43;;;36.00;99.90;;;;;;5075757;28;20207;-80
2022/08/24 07:08:46;;;;;;;9.88;4.70;;;36.50;99.90;;;;;;5072250;28;20282;-80
2022/08/24 07:11:17;;;;;;;8.35;4.40;;;36.90;98.30;;;;;;5070097;28;20210;-81
2022/08/24 07:13:45;;;;;;;9.23;4.35;;;37.30;96.80;;;;;;5070509;28;20232;-80
2022/08/24 07:16:13;;;;;;;10.55;4.03;;;37.60;94.70;;;;;;5063915;28;20261;-81
2022/08/24 07:18:43;;;;;;;13.77;4.45;;;37.80;92.30;;;;;;5072935;28;20205;-81
2022/08/24 07:21:10;;;;;;;8.02;4.05;;;38.00;90.90;;;;;;5071271;28;20563;-79
2022/08/24 07:23:49;;;;;;;9.10;4.03;;;37.80;88.10;;;;;;5073472;28;20232;-79
2022/08/24 07:26:21;;;;;;;11.48;4.47;;;37.60;86.50;;;;;;5072104;28;20286;-79
2022/08/24 07:28:49;;;;;;;11.57;4.80;;;37.60;83.50;;;;;;5066340;28;20622;-77
2022/08/24 07:31:17;;;;;;;14.27;4.95;;;37.50;82.80;;;;;;5070600;28;20247;-77
2022/08/24 07:33:55;;;;;;;11.25;4.43;;;37.60;82.30;;;;;;5087749;28;20277;-79
2022/08/24 07:36:22;;;;;;;15.27;4.13;;;37.70;81.40;;;;;;5072849;28;20200;-79
2022/08/24 07:38:52;;;;;;;9.60;4.55;;;37.70;80.30;;;;;;5087181;28;20734;-80
2022/08/24 07:41:21;;;;;;;10.02;4.90;;;37.90;77.80;;;;;;5076608;28;20204;-79
2022/08/24 07:43:49;;;;;;;12.27;5.18;;;38.00;76.30;;;;;;5074304;28;20695;-79
2022/08/24 07:46:16;;;;;;;8.90;4.28;;;38.00;75.30;;;;;;5074141;28;20578;-78
2022/08/24 07:48:44;;;;;;;12.85;5.25;;;38.10;72.50;;;;;;5073796;28;20228;-79
2022/08/24 07:51:13;;;;;;;11.38;4.78;;;37.90;75.60;;;;;;5076169;28;20264;-78
2022/08/24 07:53:43;;;;;;;9.73;4.07;;;37.90;71.50;;;;;;5075276;28;20275;-79
2022/08/24 07:56:13;;;;;;;7.22;4.13;;;37.90;71.40;;;;;;5075105;28;20200;-79
2022/08/24 07:58:44;;;;;;;7.57;4.15;;;38.10;68.90;;;;;;5074803;28;20196;-80
2022/08/24 08:01:11;;;;;;;6.70;4.13;;;38.00;67.40;;;;;;5073678;28;20216;-78
2022/08/24 08:03:38;;;;;;;11.23;4.30;;;37.80;67.10;;;;;;5070079;28;20220;-78
2022/08/24 08:06:08;;;;;;;9.02;4.70;;;37.80;68.40;;;;;;5065544;28;20204;-78
2022/08/24 08:08:38;;;;;;;10.93;4.30;;;37.80;69.00;;;;;;5066858;28;20737;-77
2022/08/24 08:11:07;;;;;;;11.25;4.32;;;37.80;66.70;;;;;;5065215;28;20208;-78
2022/08/24 08:13:36;;;;;;;7.90;3.40;;;37.90;66.90;;;;;;5069929;28;20239;-77
2022/08/24 08:16:05;;;;;;;7.93;4.07;;;37.90;65.60;;;;;;5067308;28;20834;-77
2022/08/24 08:18:35;;;;;;;12.18;4.68;;;37.80;64.50;;;;;;5082080;28;20200;-76
2022/08/24 08:24:13;;;;;;;8.57;4.10;;;37.80;64.50;;;;;;5058129;28;20214;-76
2022/08/24 08:26:41;;;;;;;10.57;4.30;;;37.90;63.30;;;;;;5076970;28;20212;-76
2022/08/24 08:29:18;;;;;;;8.15;4.10;;;38.00;63.20;;;;;;5059860;28;20228;-76
2022/08/24 08:31:46;;;;;;;11.23;4.40;;;38.00;62.20;;;;;;5057812;28;20261;-76
2022/08/24 08:34:13;;;;;;;12.40;4.28;;;38.00;61.00;;;;;;5056910;28;20240;-77
2022/08/24 08:36:42;;;;;;;10.30;4.47;;;37.90;60.70;;;;;;5057506;28;20205;-76
2022/08/24 08:39:14;;;;;;;15.15;4.90;;;37.90;61.90;;;;;;5039863;28;20228;-76
2022/08/24 08:42:12;;;;;;;13.15;4.75;;;37.90;60.50;;;;;;5059620;28;20220;-76
2022/08/24 08:44:52;;;;;;;8.93;4.05;;;37.70;60.10;;;;;;5045234;28;20293;-77
2022/08/24 08:48:03;;;;;;;9.70;4.25;;;37.10;60.50;;;;;;5052242;28;20688;-77
2022/08/24 08:50:41;;;;;;;10.35;4.32;;;36.70;61.20;;;;;;5030711;28;20284;-77
2022/08/24 08:53:26;;;;;;;13.05;4.70;;;36.30;60.50;;;;;;5032192;28;20225;-77
2022/08/24 08:56:03;;;;;;;8.43;3.67;;;36.20;61.50;;;;;;5038191;28;20216;-77
2022/08/24 08:58:52;;;;;;;12.53;4.73;;;36.40;61.70;;;;;;5063794;28;20207;-77
2022/08/24 09:01:26;;;;;;;;;;;36.60;62.20;;;;;;5070787;28;19933;-77
2022/08/24 09:04:06;;;;;;;;;;;36.70;61.50;;;;;;5071017;28;19929;-77
2022/08/24 09:06:51;;;;;;;;;;;36.90;61.40;;;;;;5055624;28;20416;-77
2022/08/24 09:09:24;;;;;;;;;;;36.80;60.30;;;;;;5062593;28;19924;-77
2022/08/24 09:11:57;;;;;;;;;;;36.60;61.10;;;;;;5065091;28;20574;-77
2022/08/24 09:14:42;;;;;;;;;;;36.30;61.10;;;;;;5060588;28;19936;-77
2022/08/24 09:17:23;;;;;;;;;;;36.00;61.30;;;;;;5074356;28;19929;-77
2022/08/24 09:19:57;;;;;;;;;;;35.70;61.60;;;;;;5079894;28;19928;-77
2022/08/24 09:22:24;;;;;;;;;;;35.60;62.10;;;;;;5076194;28;19928;-77
2022/08/24 09:25:19;;;;;;;;;;;35.40;62.10;;;;;;5065561;28;20488;-78
2022/08/24 09:27:55;;;;;;;;;;;35.20;62.30;;;;;;5031867;28;19963;-77
2022/08/24 09:30:23;;;;;;;;;;;34.90;63.00;;;;;;5067445;28;20357;-78
2022/08/24 09:32:57;;;;;;;;;;;34.60;63.50;;;;;;5069398;28;19982;-78
2022/08/24 09:35:31;;;;;;;;;;;34.60;63.50;;;;;;5069216;28;19924;-78
2022/08/24 09:37:59;;;;;;;;;;;34.40;63.80;;;;;;5068602;28;19935;-77
2022/08/24 09:40:38;;;;;;;;;;;34.20;64.20;;;;;;5087484;28;19936;-80
2022/08/24 09:43:20;;;;;;;;;;;33.90;64.00;;;;;;5071608;28;20404;-78
2022/08/24 09:46:09;;;;;;;;;;;33.60;64.70;;;;;;5052021;28;19992;-77
2022/08/24 09:48:53;;;;;;;;;;;33.20;65.40;;;;;;5070935;28;20016;-78
2022/08/24 09:51:35;;;;;;;;;;;32.80;65.90;;;;;;5070350;28;19932;-77
2022/08/24 09:54:28;;;;;;;;;;;32.30;66.10;;;;;;5058375;28;20362;-76
2022/08/24 09:57:04;;;;;;;;;;;32.20;67.30;;;;;;5062706;28;20343;-75
2022/08/24 09:59:42;;;;;;;;;;;32.00;67.50;;;;;;5061445;28;19943;-76
2022/08/24 10:02:20;;;;;;;;;;;31.70;68.00;;;;;;5061990;28;19933;-77
2022/08/24 10:04:56;;;;;;;;;;;31.40;67.80;;;;;;5064214;28;19989;-76
2022/08/24 10:07:28;;;;;;;;;;;31.20;68.90;;;;;;5054507;28;19932;-76
2022/08/24 10:10:08;;;;;;;;;;;31.10;69.60;;;;;;5068242;28;19936;-75
2022/08/24 10:12:49;;;;;;;;;;;30.70;70.00;;;;;;5065601;28;19933;-76
2022/08/24 10:15:19;;;;;;;;;;;30.70;70.70;;;;;;5053534;28;19959;-76
2022/08/24 10:17:57;;;;;;;;;;;30.60;71.00;;;;;;5052984;28;19932;-76
2022/08/24 10:20:28;;;;;;;;;;;30.70;71.80;;;;;;5055306;28;19939;-76
2022/08/24 10:23:02;;;;;;;;;;;30.70;70.50;;;;;;5052050;28;19932;-76
2022/08/24 10:25:31;;;;;;;;;;;30.70;71.50;;;;;;5049796;28;19936;-76
2022/08/24 10:28:03;;;;;;;;;;;30.80;71.90;;;;;;5059328;28;19933;-75
2022/08/24 10:30:45;;;;;;;;;;;31.00;71.80;;;;;;5049880;28;20575;-75
2022/08/24 10:33:17;;;;;;;;;;;31.00;70.50;;;;;;5048513;28;19932;-76
2022/08/24 10:35:55;;;;;;;;;;;31.00;71.20;;;;;;5065296;28;19986;-77
2022/08/24 10:41:22;;;;;;;;;;;31.10;71.60;;;;;;5060416;28;19932;-75
2022/08/24 10:44:18;;;;;;;;;;;31.40;71.30;;;;;;5082148;28;20034;-79
2022/08/24 10:46:58;;;;;;;;;;;31.50;71.20;;;;;;5019812;28;20012;-79
2022/08/24 10:49:38;;;;;;;;;;;31.50;70.90;;;;;;5064063;28;19920;-77
2022/08/24 10:52:21;;;;;;;;;;;31.60;71.30;;;;;;5060400;28;20024;-77
2022/08/24 10:54:49;;;;;;;;;;;31.80;71.30;;;;;;5077408;28;19981;-77
2022/08/24 10:57:20;;;;;;;;;;;32.00;71.10;;;;;;5062211;28;19925;-77
2022/08/24 10:59:52;;;;;;;;;;;32.20;70.50;;;;;;5061578;28;19931;-77
2022/08/24 11:02:30;;;;;;;;;;;32.30;70.40;;;;;;5079813;28;19950;-77
2022/08/24 11:04:58;;;;;;;;;;;32.30;70.20;;;;;;5078574;28;19925;-77
2022/08/24 11:07:27;;;;;;;;;;;32.40;70.20;;;;;;5080588;28;19932;-77
2022/08/24 11:09:55;;;;;;;;;;;32.50;69.80;;;;;;5083759;28;19932;-77
2022/08/24 11:12:25;;;;;;;;;;;32.60;69.40;;;;;;5068776;28;19951;-78
2022/08/24 11:14:57;;;;;;;;;;;32.70;69.20;;;;;;5068434;28;20023;-78
2022/08/24 11:17:26;;;;;;;;;;;32.70;69.00;;;;;;5068117;28;20030;-78
2022/08/24 11:19:53;;;;;;;;;;;32.70;69.00;;;;;;5063526;28;19967;-78
2022/08/24 11:22:35;;;;;;;;;;;32.90;68.40;;;;;;5065686;28;20419;-78
2022/08/24 11:25:04;;;;;;;;;;;32.80;68.10;;;;;;5078079;28;19928;-77
2022/08/24 11:27:36;;;;;;;;;;;33.00;68.10;;;;;;5068789;28;19929;-78
2022/08/24 11:30:09;;;;;;;;;;;33.10;67.20;;;;;;5068333;28;19928;-77
2022/08/24 11:32:40;;;;;;;;;;;33.20;66.20;;;;;;5070313;28;19954;-78
2022/08/24 11:35:09;;;;;;;;;;;33.20;66.80;;;;;;5067401;28;19936;-77
2022/08/24 11:37:38;;;;;;;;;;;33.10;66.60;;;;;;5068581;28;19928;-77
2022/08/24 11:40:07;;;;;;;;;;;33.20;67.10;;;;;;5067513;28;19952;-77
2022/08/24 11:42:51;;;;;;;;;;;33.40;65.30;;;;;;5069087;28;19935;-77
2022/08/24 11:45:23;;;;;;;;;;;33.40;65.90;;;;;;5069064;28;20482;-81
2022/08/24 11:47:59;;;;;;;;;;;33.30;65.50;;;;;;5059545;28;20834;-80
2022/08/24 11:50:29;;;;;;;;;;;33.30;66.10;;;;;;5074161;28;19940;-82
2022/08/24 11:53:03;;;;;;;;;;;33.40;65.40;;;;;;5061419;28;19935;-80
2022/08/24 11:55:32;;;;;;;;;;;33.40;65.20;;;;;;5060505;28;20403;-80
2022/08/24 11:58:01;;;;;;;;;;;33.60;65.70;;;;;;5061316;28;21584;-82
2022/08/24 12:00:36;;;;;;;;;;;33.70;65.40;;;;;;5076802;28;20035;-82
2022/08/24 12:03:07;;;;;;;;;;;33.90;65.30;;;;;;5061121;28;20019;-81
2022/08/24 12:05:39;;;;;;;;;;;34.10;65.60;;;;;;5057380;28;20482;-81
2022/08/24 12:08:16;;;;;;;;;;;34.30;65.50;;;;;;5073087;28;19925;-80
2022/08/24 12:10:49;;;;;;;;;;;34.40;63.80;;;;;;5064746;28;19936;-81
2022/08/24 12:13:25;;;;;;;;;;;34.30;63.60;;;;;;5061520;28;19986;-80
2022/08/24 12:15:56;;;;;;;;;;;34.30;64.00;;;;;;5076656;28;19931;-81
2022/08/24 12:18:27;;;;;;;;;;;34.30;63.70;;;;;;5071867;28;20486;-79
2022/08/24 12:20:54;;;;;;;;;;;34.20;62.80;;;;;;5064748;28;19939;-81
2022/08/24 12:23:25;;;;;;;;;;;34.30;63.30;;;;;;5070159;28;19975;-80
2022/08/24 12:26:03;;;;;;;;;;;34.30;63.40;;;;;;5054629;28;19925;-79
2022/08/24 12:28:32;;;;;;;;;;;34.40;62.90;;;;;;5072847;28;20026;-80
2022/08/24 12:31:02;;;;;;;;;;;34.50;63.00;;;;;;5074775;28;19932;-80
2022/08/24 12:33:32;;;;;;;;;;;34.70;63.20;;;;;;5062524;28;19947;-79
2022/08/24 12:36:01;;;;;;;;;;;34.80;63.90;;;;;;5054787;28;20002;-79
2022/08/24 12:38:33;;;;;;;;;;;34.90;61.80;;;;;;5079384;28;19935;-79
2022/08/24 12:41:01;;;;;;;;;;;34.80;61.60;;;;;;5058526;28;20380;-80
2022/08/24 12:43:31;;;;;;;;;;;34.60;61.70;;;;;;5055677;28;19928;-80
2022/08/24 12:46:00;;;;;;;;;;;34.50;62.30;;;;;;5063547;28;19940;-80
2022/08/24 12:48:29;;;;;;;;;;;34.60;62.20;;;;;;5048474;28;19929;-79
2022/08/24 12:51:07;;;;;;;;;;;34.70;62.10;;;;;;5057069;28;20435;-79
2022/08/24 12:53:49;;;;;;;;;;;34.90;61.90;;;;;;5049208;28;20041;-80
2022/08/24 12:56:34;;;;;;;;;;;35.00;61.90;;;;;;5061202;28;19935;-80
2022/08/24 12:59:05;;;;;;;;;;;35.10;61.90;;;;;;5037174;28;19928;-79
2022/08/24 13:01:34;;;;;;;;;;;35.20;61.40;;;;;;5069581;28;19929;-79
2022/08/24 13:04:03;;;;;;;;;;;35.40;61.10;;;;;;5049300;28;19947;-79
2022/08/24 13:06:37;;;;;;;;;;;35.60;60.30;;;;;;5053092;28;19936;-79
2022/08/24 13:09:05;;;;;;;;;;;35.60;60.00;;;;;;5058799;28;20161;-79
2022/08/24 13:11:33;;;;;;;;;;;35.30;59.60;;;;;;5060142;28;19964;-79
2022/08/24 13:14:16;;;;;;;;;;;35.10;60.20;;;;;;5059631;28;20431;-79
2022/08/24 13:16:47;;;;;;;;;;;35.00;60.20;;;;;;5085794;28;19924;-80
2022/08/24 13:19:16;;;;;;;;;;;35.20;60.40;;;;;;5069352;28;20384;-79
2022/08/24 13:21:50;;;;;;;;;;;35.40;60.00;;;;;;5074931;28;20392;-80
2022/08/24 13:24:41;;;;;;;;;;;35.60;59.70;;;;;;5071730;28;19996;-79
2022/08/24 13:27:23;;;;;;;;;;;35.60;59.40;;;;;;5066018;28;19928;-79
2022/08/24 13:29:54;;;;;;;;;;;35.40;59.70;;;;;;5084184;28;19933;-81
2022/08/24 13:32:36;;;;;;;;;;;35.40;59.80;;;;;;5066513;28;19982;-81
2022/08/24 13:35:18;;;;;;;;;;;35.70;59.60;;;;;;5070109;28;19929;-81
2022/08/24 13:38:04;;;;;;;;;;;35.80;58.70;;;;;;5058966;28;19932;-81
2022/08/24 13:40:31;;;;;;;;;;;35.70;59.10;;;;;;5091276;28;20447;-81
2022/08/24 13:43:06;;;;;;;;;;;35.80;59.30;;;;;;5070972;28;19936;-82
2022/08/24 13:45:36;;;;;;;;;;;35.80;58.90;;;;;;5070387;28;19928;-82
2022/08/24 13:48:12;;;;;;;;;;;35.90;58.40;;;;;;5073787;28;20300;-82
2022/08/24 13:50:44;;;;;;;;;;;36.00;58.50;;;;;;5086420;28;19928;-83
2022/08/24 13:53:30;;;;;;;;;;;36.10;58.30;;;;;;5068660;28;19928;-83
2022/08/24 13:56:12;;;;;;;;;;;36.10;58.10;;;;;;5064322;28;20482;-82
2022/08/24 13:58:42;;;;;;;;;;;36.10;58.20;;;;;;5068699;28;19928;-82
2022/08/24 14:01:22;;;;;;;;;;;36.10;57.80;;;;;;5067661;28;20094;-83
2022/08/24 14:04:04;;;;;;;;;;;35.80;58.00;;;;;;5071638;28;20020;-82
2022/08/24 14:06:35;;;;;;;;;;;35.60;58.00;;;;;;5070983;28;19995;-80
2022/08/24 14:09:12;;;;;;;;;;;35.20;58.30;;;;;;5070838;28;20031;-81
2022/08/24 14:11:54;;;;;;;;;;;35.00;58.50;;;;;;5071626;28;20355;-80
2022/08/24 14:14:26;;;;;;;;;;;34.80;58.50;;;;;;5075390;28;19963;-80
2022/08/24 14:19:49;;;;;;;;;;;34.40;58.90;;;;;;5078237;28;19931;-82
2022/08/24 14:22:22;;;;;;;;;;;34.10;59.20;;;;;;5074758;28;19950;-81
2022/08/24 14:24:57;;;;;;;;;;;33.70;59.60;;;;;;5072920;28;19928;-82
2022/08/24 14:27:37;;;;;;;;;;;33.60;59.40;;;;;;5090222;28;19924;-82
2022/08/24 14:30:22;;;;;;;;;;;33.60;59.60;;;;;;5069183;28;19956;-81
2022/08/24 14:33:04;;;;;;;;;;;33.60;59.40;;;;;;5065188;28;20304;-81
2022/08/24 14:35:38;;;;;;;;;;;33.60;59.50;;;;;;5072447;28;20348;-82
2022/08/24 14:38:11;;;;;;;;;;;33.70;59.50;;;;;;5066502;28;19986;-81
2022/08/24 14:40:42;;;;;;;;;;;33.80;59.50;;;;;;5068719;28;20474;-81